Time;durP1;ratioP1;P1;durP2;ratioP2;P2;SDS_P1;SDS_P2;PMS_P1;PMS_P2;Temp;Humidity;BMP_temperature;BMP_pressure;BME280_temperature;BME280_humidity;BME280_pressure;Samples;Min_cycle;Max_cycle;Signal;HPM_P1;HPM_P2
2022/09/14 00:00:46;;;;;;;2.63;1.40;;;16.00;93.00;;;14.39;75.46;99592.13;10286216;28;99341;-87
2022/09/14 00:06:12;;;;;;;2.25;1.33;;;15.90;93.10;;;14.34;75.79;99583.91;10310626;28;96559;-87
2022/09/14 00:11:16;;;;;;;2.08;1.23;;;15.90;93.40;;;14.30;75.54;99577.31;10269822;28;98035;-87
2022/09/14 00:16:25;;;;;;;2.50;1.10;;;15.80;93.50;;;14.24;75.82;99577.34;10313692;28;96685;-87
2022/09/14 00:21:28;;;;;;;2.38;1.45;;;15.80;93.70;;;14.19;76.10;99575.28;10307008;28;96615;-88
2022/09/14 00:26:31;;;;;;;1.83;1.10;;;15.70;94.10;;;14.15;76.09;99571.34;10271807;28;98006;-89
2022/09/14 00:31:37;;;;;;;3.13;1.33;;;15.70;93.90;;;14.10;75.99;99563.16;10325448;28;98136;-88
2022/09/14 00:36:45;;;;;;;1.73;1.10;;;15.60;94.10;;;14.00;76.01;99571.59;10284990;28;98340;-88
2022/09/14 00:41:49;;;;;;;1.27;0.90;;;15.60;94.60;;;13.95;76.29;99559.88;10325974;28;97105;-88
2022/09/14 00:46:57;;;;;;;1.63;1.13;;;15.50;94.60;;;13.89;76.62;99566.84;10307871;28;96886;-89
2022/09/14 00:52:24;;;;;;;1.50;0.97;;;15.40;94.80;;;13.85;76.69;99573.63;10283948;28;98252;-88
2022/09/14 00:57:43;;;;;;;1.48;0.80;;;15.40;95.10;;;13.78;76.71;99568.28;10286925;28;98492;-87
2022/09/14 01:02:46;;;;;;;2.33;1.27;;;15.30;95.10;;;13.70;77.14;99573.81;10291372;28;98326;-87
2022/09/14 01:08:15;;;;;;;1.50;0.95;;;15.30;95.40;;;13.66;77.05;99557.38;10278620;28;96594;-87
2022/09/14 01:13:47;;;;;;;1.33;0.90;;;15.20;95.70;;;13.62;77.23;99563.34;10320325;28;96734;-87
2022/09/14 01:18:57;;;;;;;1.90;0.93;;;15.20;95.70;;;13.56;77.49;99554.28;10299811;28;96663;-87
2022/09/14 01:24:45;;;;;;;1.53;1.00;;;15.10;95.90;;;13.51;77.80;99555.91;10288952;28;96577;-87
2022/09/14 01:30:10;;;;;;;1.70;0.90;;;15.00;96.20;;;13.40;78.19;99549.31;10273828;28;96679;-84
2022/09/14 01:35:34;;;;;;;1.50;1.00;;;15.00;96.70;;;13.34;78.47;99547.47;10296955;28;96821;-86
2022/09/14 01:40:49;;;;;;;2.28;1.40;;;14.90;97.10;;;13.32;79.09;99536.19;10280090;28;97419;-85
2022/09/14 01:45:58;;;;;;;1.90;1.38;;;14.80;97.20;;;13.27;79.25;99536.78;10292900;28;98336;-86
2022/09/14 01:51:08;;;;;;;2.23;1.40;;;14.80;97.60;;;13.23;79.52;99532.03;10293184;28;96628;-86
2022/09/14 01:56:46;;;;;;;1.73;1.10;;;14.70;97.90;;;13.23;79.75;99526.69;10285041;28;96659;-86
2022/09/14 02:02:05;;;;;;;2.33;1.40;;;14.70;98.10;;;13.17;79.84;99516.81;10293034;28;97173;-87
2022/09/14 02:07:09;;;;;;;1.67;1.10;;;14.70;98.40;;;13.15;79.97;99513.53;10284050;28;96666;-88
2022/09/14 02:12:14;;;;;;;3.77;1.60;;;14.70;98.50;;;13.10;80.15;99503.44;10292853;28;96489;-88
2022/09/14 02:17:17;;;;;;;1.57;1.07;;;14.60;98.70;;;13.06;80.09;99500.34;10290657;28;97089;-88
2022/09/14 02:22:20;;;;;;;2.57;1.67;;;14.60;98.80;;;13.00;80.38;99493.16;10281328;28;96653;-89
2022/09/14 02:27:24;;;;;;;1.63;1.10;;;14.50;98.80;;;12.94;80.25;99485.94;10285672;28;96735;-88
2022/09/14 02:32:40;;;;;;;2.27;1.43;;;14.50;99.20;;;12.89;80.65;99485.72;10272103;28;96568;-88
2022/09/14 02:37:48;;;;;;;1.23;0.87;;;14.40;99.40;;;12.86;80.83;99470.16;10276933;28;96789;-87
2022/09/14 02:43:18;;;;;;;1.60;1.03;;;14.40;99.80;;;12.82;81.21;99468.88;10295574;28;97043;-86
2022/09/14 02:48:47;;;;;;;1.90;1.10;;;14.30;99.90;;;12.77;81.50;99476.66;10263974;28;97936;-85
2022/09/14 02:54:23;;;;;;;2.03;1.23;;;14.30;99.90;;;12.78;81.79;99471.16;10265072;28;96580;-85
2022/09/14 02:59:26;;;;;;;4.10;1.40;;;14.30;99.90;;;12.85;81.89;99471.16;10277176;28;97138;-87
2022/09/14 03:04:28;;;;;;;1.60;0.87;;;14.40;99.90;;;12.92;81.94;99472.00;10317242;28;98562;-87
2022/09/14 03:09:31;;;;;;;3.83;1.53;;;14.50;99.90;;;12.97;82.06;99466.06;10281232;28;96663;-87
2022/09/14 03:14:34;;;;;;;1.43;1.03;;;14.50;99.90;;;13.02;82.12;99469.78;10314453;28;97086;-87
2022/09/14 03:19:37;;;;;;;2.53;1.33;;;14.60;99.90;;;13.03;81.95;99467.94;10283904;28;98290;-87
2022/09/14 03:24:41;;;;;;;1.93;1.20;;;14.60;99.90;;;13.07;82.02;99455.81;10276028;28;96675;-87
2022/09/14 03:29:44;;;;;;;1.53;0.90;;;14.60;99.90;;;13.10;82.05;99463.44;10304016;28;97270;-87
2022/09/14 03:34:46;;;;;;;1.70;1.00;;;14.70;99.90;;;13.13;82.26;99455.88;10303958;28;98542;-86
2022/09/14 03:39:49;;;;;;;1.90;1.00;;;14.70;99.90;;;13.22;82.36;99458.38;10284337;28;96747;-87
2022/09/14 03:44:52;;;;;;;1.73;1.00;;;14.70;99.90;;;13.26;82.41;99459.59;10286905;28;97172;-87
2022/09/14 03:49:54;;;;;;;2.00;1.20;;;14.80;99.90;;;13.31;82.63;99452.63;10320733;28;96749;-87
2022/09/14 03:54:57;;;;;;;2.50;1.40;;;14.80;99.90;;;13.37;82.58;99465.16;10266159;28;97349;-86
2022/09/14 04:00:01;;;;;;;1.87;1.40;;;14.90;99.90;;;13.42;82.56;99453.03;10274399;28;98268;-86
2022/09/14 04:05:05;;;;;;;2.60;1.03;;;14.90;99.90;;;13.42;82.43;99453.84;10292789;28;97732;-87
2022/09/14 04:10:08;;;;;;;1.67;1.10;;;15.00;99.90;;;13.45;82.42;99450.78;10291625;28;97450;-87
2022/09/14 04:15:11;;;;;;;1.43;0.90;;;15.00;99.90;;;13.42;82.39;99443.19;10293536;28;98511;-88
2022/09/14 04:20:16;;;;;;;2.50;1.50;;;15.00;99.90;;;13.38;82.46;99425.97;10285485;28;96491;-89
2022/09/14 04:25:19;;;;;;;2.65;1.40;;;15.00;99.90;;;13.35;82.30;99421.00;10285202;28;96630;-89
2022/09/14 04:30:22;;;;;;;2.50;1.37;;;14.90;99.90;;;13.34;82.37;99422.88;10274638;28;97300;-89
2022/09/14 04:35:25;;;;;;;3.70;1.60;;;14.90;99.90;;;13.31;82.59;99425.09;10276528;28;98068;-88
2022/09/14 04:40:28;;;;;;;2.70;1.50;;;14.90;99.90;;;13.35;82.59;99423.69;10285714;28;96653;-89
2022/09/14 04:45:31;;;;;;;5.78;2.08;;;14.90;99.90;;;13.34;82.47;99422.88;10300996;28;96878;-89
2022/09/14 04:50:33;;;;;;;3.00;1.70;;;14.90;99.90;;;13.35;82.60;99423.69;10283674;28;96520;-89
2022/09/14 04:55:37;;;;;;;3.50;1.87;;;14.90;99.90;;;13.36;82.74;99415.47;10278010;28;98347;-89
2022/09/14 05:00:39;;;;;;;1.77;1.13;;;14.90;99.90;;;13.41;83.22;99422.88;10287118;28;96748;-90
2022/09/14 05:05:42;;;;;;;2.43;1.57;;;15.00;99.90;;;13.45;83.36;99413.44;10286942;28;97995;-85
2022/09/14 05:10:46;;;;;;;2.97;1.70;;;15.00;99.90;;;13.53;83.52;99413.22;10316907;28;97468;-88
2022/09/14 05:15:50;;;;;;;2.33;1.48;;;15.00;99.90;;;13.60;83.58;99435.38;10287526;28;96759;-85
2022/09/14 05:20:52;;;;;;;2.88;1.77;;;15.10;99.90;;;13.70;83.48;99443.00;10282070;28;97596;-87
2022/09/14 05:25:56;;;;;;;4.10;2.10;;;15.20;99.90;;;13.79;83.58;99439.06;10263885;28;97161;-86
2022/09/14 05:31:02;;;;;;;4.38;2.08;;;15.30;99.90;;;13.93;83.43;99422.00;10291344;28;98435;-85
2022/09/14 05:36:09;;;;;;;3.70;1.97;;;15.40;99.90;;;14.06;82.80;99404.31;10277329;28;100288;-85
2022/09/14 05:41:13;;;;;;;3.97;2.00;;;15.60;99.90;;;14.16;82.52;99397.50;10292217;28;96619;-91
2022/09/14 05:46:21;;;;;;;2.33;1.70;;;15.70;99.90;;;14.26;82.03;99407.72;10284675;28;96593;-91
2022/09/14 05:51:26;;;;;;;3.85;1.52;;;15.80;99.90;;;14.32;81.73;99412.22;10285611;28;96635;-92
2022/09/14 05:56:30;;;;;;;3.58;1.90;;;15.80;99.90;;;14.45;81.45;99414.03;10261497;28;96670;-85
2022/09/14 06:01:33;;;;;;;1.67;1.17;;;16.00;99.90;;;14.56;81.05;99433.97;10293156;28;98184;-85
2022/09/14 06:06:36;;;;;;;2.40;1.70;;;16.10;99.90;;;14.66;80.25;99437.03;10270162;28;98940;-85
2022/09/14 06:11:39;;;;;;;2.97;2.00;;;16.10;99.90;;;14.85;80.10;99425.41;10291137;28;97254;-85
2022/09/14 06:16:43;;;;;;;2.55;1.65;;;16.30;99.90;;;15.02;78.75;99420.38;10268495;28;96726;-85
2022/09/14 06:21:47;;;;;;;2.25;1.55;;;16.50;99.90;;;15.16;77.23;99411.19;10275317;28;97953;-86
2022/09/14 06:26:49;;;;;;;3.15;1.42;;;16.70;99.90;;;15.32;76.73;99422.44;10273244;28;96592;-85
2022/09/14 06:31:53;;;;;;;3.22;1.80;;;16.90;99.90;;;15.38;75.22;99409.00;10271048;28;96879;-87
2022/09/14 06:36:56;;;;;;;3.75;1.70;;;17.00;99.90;;;15.47;74.77;99418.41;10319089;28;97123;-88
2022/09/14 06:41:59;;;;;;;1.88;1.33;;;17.10;99.70;;;15.58;74.33;99414.16;10299490;28;96644;-88
2022/09/14 06:47:02;;;;;;;2.03;1.30;;;17.20;99.40;;;15.65;73.75;99412.31;10265011;28;96596;-87
2022/09/14 06:52:04;;;;;;;3.63;1.60;;;17.30;98.90;;;15.68;72.72;99419.88;10303126;28;96653;-87
2022/09/14 06:57:07;;;;;;;3.95;2.08;;;17.30;98.70;;;15.70;72.79;99414.31;10288561;28;97587;-88
2022/09/14 07:02:12;;;;;;;3.08;1.48;;;17.30;98.70;;;15.70;72.72;99415.13;10306392;28;96636;-87
2022/09/14 07:07:15;;;;;;;4.05;1.58;;;17.40;98.50;;;15.72;73.49;99406.88;10292011;28;96690;-87
2022/09/14 07:12:18;;;;;;;1.92;1.30;;;17.40;98.50;;;15.78;73.40;99416.72;10290669;28;98382;-86
2022/09/14 07:17:21;;;;;;;3.08;1.52;;;17.50;98.50;;;15.85;73.57;99425.50;10290727;28;96661;-87
2022/09/14 07:22:23;;;;;;;2.45;1.60;;;17.50;98.30;;;15.91;73.59;99423.81;10290941;28;96652;-87
2022/09/14 07:27:26;;;;;;;2.63;1.65;;;17.60;98.30;;;15.97;73.64;99406.84;10299268;28;98330;-87
2022/09/14 07:32:29;;;;;;;2.95;1.60;;;17.70;98.30;;;16.01;73.97;99416.06;10285968;28;97989;-86
2022/09/14 07:37:32;;;;;;;4.07;2.13;;;17.70;98.30;;;16.08;73.88;99411.47;10281012;28;96998;-87
2022/09/14 07:42:36;;;;;;;3.78;2.10;;;17.70;98.20;;;16.10;73.65;99398.66;10311908;28;96704;-87
2022/09/14 07:47:40;;;;;;;3.92;1.65;;;17.80;98.20;;;16.15;73.71;99398.81;10281807;28;96633;-85
2022/09/14 07:52:43;;;;;;;2.97;1.90;;;17.80;98.10;;;16.19;73.53;99397.31;10280844;28;96639;-85
2022/09/14 07:57:46;;;;;;;3.28;1.60;;;17.90;98.20;;;16.25;73.68;99398.25;10303075;28;96507;-86
2022/09/14 08:02:58;;;;;;;2.95;1.70;;;17.90;98.10;;;16.33;73.52;99389.94;10299748;28;96682;-86
2022/09/14 08:08:01;;;;;;;3.35;1.85;;;18.00;98.00;;;16.44;73.12;99396.41;10314233;28;96518;-86
2022/09/14 08:13:04;;;;;;;3.28;2.17;;;18.10;98.00;;;16.52;72.30;99378.13;10299914;28;96967;-85
2022/09/14 08:18:09;;;;;;;2.67;1.90;;;18.10;97.80;;;16.57;72.17;99380.16;10319861;28;98341;-85
2022/09/14 08:23:12;;;;;;;2.75;1.55;;;18.20;97.60;;;16.56;71.31;99376.66;10291433;28;98422;-86
2022/09/14 08:28:14;;;;;;;3.75;2.60;;;18.20;97.40;;;16.60;71.43;99380.50;10290708;28;96674;-86
2022/09/14 08:33:17;;;;;;;3.10;1.90;;;18.30;97.40;;;16.70;72.11;99358.53;10281666;28;97257;-86
2022/09/14 08:38:20;;;;;;;4.53;2.53;;;18.40;97.40;;;16.85;72.18;99350.91;10294510;28;96895;-86
2022/09/14 08:43:26;;;;;;;4.45;2.95;;;18.60;97.40;;;17.08;70.62;99357.34;10295980;28;96609;-87
2022/09/14 08:48:47;;;;;;;4.25;2.60;;;18.70;97.00;;;17.29;69.76;99361.38;10287316;28;96651;-87
2022/09/14 08:53:52;;;;;;;4.60;2.75;;;19.00;96.80;;;17.53;69.10;99368.38;10266351;28;96510;-87
2022/09/14 08:59:56;;;;;;;2.70;1.80;;;19.10;96.30;;;17.81;68.30;99365.03;10314514;28;96785;-87
2022/09/14 09:05:01;;;;;;;4.65;2.70;;;19.40;96.40;;;17.98;67.38;99354.34;10263422;28;98057;-87
2022/09/14 09:10:05;;;;;;;5.00;2.80;;;19.60;95.70;;;18.04;66.83;99357.97;10311699;28;96507;-86
2022/09/14 09:15:21;;;;;;;5.28;2.17;;;19.70;95.40;;;18.16;66.88;99361.44;10295468;28;96520;-86
2022/09/14 09:20:33;;;;;;;6.53;2.35;;;19.80;95.30;;;18.29;66.45;99377.34;10296627;28;96478;-87
2022/09/14 09:26:14;;;;;;;3.55;2.40;;;19.90;95.20;;;18.37;66.15;99373.44;10297648;28;96950;-87
2022/09/14 09:31:21;;;;;;;3.37;2.30;;;20.00;94.80;;;18.36;66.27;99386.09;10295285;28;96673;-87
2022/09/14 09:36:24;;;;;;;3.95;2.50;;;20.00;94.60;;;18.43;66.49;99394.81;10281612;28;96593;-87
2022/09/14 09:41:38;;;;;;;4.03;2.08;;;20.10;94.80;;;18.64;66.64;99400.59;10297700;28;98176;-85
2022/09/14 09:46:53;;;;;;;3.55;2.20;;;20.30;94.60;;;19.06;65.74;99393.06;10285299;28;97151;-84
2022/09/14 09:52:15;;;;;;;4.68;2.50;;;20.60;94.50;;;19.32;64.13;99404.28;10272878;28;97410;-85
2022/09/14 09:57:34;;;;;;;4.18;2.42;;;20.90;93.90;;;19.45;63.19;99391.28;10273259;28;98472;-90
2022/09/14 10:02:37;;;;;;;4.22;2.92;;;21.20;93.40;;;19.58;62.48;99400.09;10292648;28;97329;-90
2022/09/14 10:07:49;;;;;;;3.42;2.38;;;21.30;92.70;;;19.93;62.73;99397.97;10291025;28;96488;-84
2022/09/14 10:12:56;;;;;;;3.85;2.25;;;21.60;92.80;;;20.10;61.76;99389.03;10290029;28;96599;-84
2022/09/14 10:18:09;;;;;;;3.08;2.17;;;21.80;92.30;;;20.29;61.95;99385.78;10297367;28;97283;-84
2022/09/14 10:23:19;;;;;;;3.30;2.00;;;22.00;92.20;;;20.36;61.81;99376.66;10288206;28;96947;-85
2022/09/14 10:28:32;;;;;;;2.85;1.73;;;22.10;92.00;;;20.33;61.23;99369.88;10275011;28;97861;-85
2022/09/14 10:33:35;;;;;;;5.45;2.35;;;22.10;91.70;;;20.31;61.81;99364.75;10287129;28;97535;-85
2022/09/14 10:38:54;;;;;;;3.63;2.20;;;22.10;91.70;;;20.30;61.80;99359.59;10317402;28;96679;-85
2022/09/14 10:44:20;;;;;;;3.70;2.22;;;22.10;91.60;;;20.28;62.41;99351.78;10297255;28;96509;-84
2022/09/14 10:49:39;;;;;;;3.25;2.08;;;22.00;91.60;;;20.32;63.24;99352.06;10298773;28;96678;-82
2022/09/14 10:55:00;;;;;;;3.43;2.30;;;22.10;92.10;;;20.45;63.45;99353.56;10306353;28;96625;-85
2022/09/14 11:00:12;;;;;;;4.25;1.90;;;22.20;92.30;;;20.66;63.35;99351.94;10292476;28;96663;-84
2022/09/14 11:05:38;;;;;;;3.20;1.80;;;22.40;92.10;;;20.91;62.48;99341.38;10279038;28;98791;-84
2022/09/14 11:11:03;;;;;;;4.13;2.30;;;22.60;92.00;;;21.13;62.16;99352.13;10275849;28;96552;-84
2022/09/14 11:16:50;;;;;;;3.65;2.38;;;22.80;91.80;;;21.29;62.10;99345.81;10287494;28;96678;-85
2022/09/14 11:22:23;;;;;;;4.82;2.55;;;23.00;91.60;;;21.31;62.09;99329.31;10279653;28;96654;-85
2022/09/14 11:27:41;;;;;;;3.13;2.05;;;23.10;91.50;;;21.36;62.81;99332.06;10279648;28;98285;-84
2022/09/14 11:33:33;;;;;;;4.60;2.53;;;23.10;91.50;;;21.39;62.14;99326.13;10255976;28;96617;-85
2022/09/14 11:38:47;;;;;;;3.65;2.30;;;23.10;91.30;;;21.47;62.64;99322.13;10298893;28;98243;-85
2022/09/14 11:44:14;;;;;;;3.70;2.22;;;23.20;91.40;;;21.52;61.80;99325.66;10276108;28;98526;-85
2022/09/14 11:49:45;;;;;;;4.25;2.17;;;23.20;91.40;;;21.64;61.81;99333.56;10300544;28;97341;-85
2022/09/14 11:54:49;;;;;;;;;;;23.30;91.30;;;21.68;61.80;99312.25;10291200;28;96447;-85
2022/09/14 11:59:57;;;;;;;4.10;2.45;;;23.40;91.10;;;21.72;61.79;99313.38;10322771;28;96488;-85
2022/09/14 12:05:06;;;;;;;2.65;1.90;;;23.40;91.10;;;21.76;62.14;99306.34;10260366;28;96721;-83
2022/09/14 12:10:12;;;;;;;3.85;2.00;;;23.40;91.10;;;21.91;62.48;99304.53;10289603;28;96822;-85
2022/09/14 12:15:34;;;;;;;3.00;1.98;;;23.60;91.20;;;22.07;61.57;99296.47;10268062;28;96943;-85
2022/09/14 12:20:40;;;;;;;3.30;1.85;;;23.70;91.10;;;22.17;61.47;99307.34;10289702;28;97208;-85
2022/09/14 12:26:05;;;;;;;3.13;2.00;;;23.80;90.90;;;22.27;61.32;99293.88;10304100;28;96653;-84
2022/09/14 12:31:33;;;;;;;3.60;2.00;;;23.90;91.00;;;22.31;61.65;99283.31;10294430;28;96639;-84
2022/09/14 12:36:35;;;;;;;2.95;1.60;;;23.90;91.10;;;22.43;61.69;99283.88;10227768;28;96721;-84
2022/09/14 12:41:38;;;;;;;2.65;1.80;;;24.00;91.00;;;22.56;61.13;99280.69;10283708;28;97308;-84
2022/09/14 12:46:41;;;;;;;3.08;2.10;;;24.20;91.00;;;22.65;60.86;99254.69;10294726;28;97001;-84
2022/09/14 12:51:47;;;;;;;2.28;1.67;;;24.30;90.80;;;22.87;60.99;99251.75;10288676;28;98338;-84
2022/09/14 12:57:28;;;;;;;3.33;1.92;;;24.50;90.70;;;22.93;60.11;99239.81;10286539;28;96585;-84
2022/09/14 13:03:06;;;;;;;4.13;1.60;;;24.50;90.40;;;22.94;60.27;99235.22;10303568;28;96669;-84
2022/09/14 13:08:11;;;;;;;3.42;2.35;;;24.60;90.30;;;22.99;59.74;99229.78;10296175;28;96550;-84
2022/09/14 13:13:30;;;;;;;3.05;1.92;;;24.60;90.10;;;23.05;59.49;99236.81;10294692;28;98449;-84
2022/09/14 13:18:37;;;;;;;3.20;1.80;;;24.50;90.00;;;23.02;59.89;99231.13;10288823;28;97189;-84
2022/09/14 13:23:41;;;;;;;2.10;1.65;;;24.50;90.10;;;23.01;60.13;99226.81;10262773;28;97459;-84
2022/09/14 13:28:48;;;;;;;2.60;1.88;;;24.50;90.20;;;23.13;60.01;99233.56;10283923;28;98525;-84
2022/09/14 13:33:53;;;;;;;3.15;1.73;;;24.60;90.20;;;23.15;59.53;99230.56;10300238;28;96661;-85
2022/09/14 13:39:00;;;;;;;2.10;1.40;;;24.60;90.10;;;23.19;60.09;99234.34;10318752;28;96483;-85
2022/09/14 13:44:05;;;;;;;1.98;1.20;;;24.60;90.20;;;23.35;60.37;99229.72;10324113;28;96584;-85
2022/09/14 13:49:08;;;;;;;2.50;1.45;;;24.90;90.20;;;23.42;59.48;99219.41;10293726;28;97527;-85
2022/09/14 13:54:23;;;;;;;2.55;1.58;;;25.00;89.90;;;23.40;59.09;99213.44;10285722;28;98378;-86
2022/09/14 13:59:26;;;;;;;2.20;1.65;;;25.00;89.50;;;23.21;59.27;99203.19;10296939;28;97105;-84
2022/09/14 14:04:38;;;;;;;2.40;1.70;;;24.90;89.10;;;23.11;59.72;99189.66;10268358;28;98472;-85
2022/09/14 14:09:52;;;;;;;2.10;1.50;;;24.80;89.20;;;23.06;60.39;99191.56;10282382;28;96601;-84
2022/09/14 14:15:05;;;;;;;2.67;1.92;;;24.70;89.50;;;23.01;60.45;99173.41;10278231;28;98098;-85
2022/09/14 14:20:23;;;;;;;2.78;1.70;;;24.70;89.50;;;22.97;60.75;99183.22;10299443;28;97009;-86
2022/09/14 14:25:39;;;;;;;2.55;1.40;;;24.60;89.80;;;23.03;60.69;99160.44;10275913;28;96616;-86
2022/09/14 14:30:49;;;;;;;2.85;1.52;;;24.60;90.00;;;23.02;60.57;99142.53;10288619;28;98168;-88
2022/09/14 14:35:55;;;;;;;2.83;1.40;;;24.60;89.70;;;22.95;60.71;99142.81;10314630;28;98773;-88
2022/09/14 14:40:58;;;;;;;2.95;1.35;;;24.60;89.90;;;22.96;61.18;99152.56;10287421;28;96708;-87
2022/09/14 14:46:01;;;;;;;2.70;1.58;;;24.60;90.00;;;23.05;61.41;99162.88;10292967;28;96537;-86
2022/09/14 14:51:05;;;;;;;2.40;1.70;;;24.60;90.10;;;23.15;61.00;99152.81;10287128;28;96666;-86
2022/09/14 14:56:12;;;;;;;2.63;1.20;;;24.70;90.00;;;23.27;60.72;99154.38;10314053;28;96842;-87
2022/09/14 15:01:15;;;;;;;3.65;1.58;;;24.80;90.00;;;23.16;60.43;99150.91;10291930;28;98052;-87
2022/09/14 15:06:26;;;;;;;2.05;1.30;;;24.80;89.60;;;23.19;61.07;99151.16;10304650;28;96497;-87
2022/09/14 15:11:30;;;;;;;2.00;1.20;;;24.80;89.80;;;23.24;61.33;99118.63;10293142;28;98234;-87
2022/09/14 15:16:33;;;;;;;1.88;1.17;;;24.80;89.90;;;23.29;61.08;99117.00;10295796;28;96807;-87
2022/09/14 15:21:38;;;;;;;1.85;1.20;;;24.90;89.90;;;23.32;60.67;99111.81;10279945;28;98190;-87
2022/09/14 15:26:41;;;;;;;1.67;1.20;;;25.00;89.80;;;23.46;60.31;99103.91;10318916;28;96749;-86
2022/09/14 15:31:44;;;;;;;2.47;1.17;;;25.10;89.40;;;23.48;60.36;99099.00;10288567;28;96724;-86
2022/09/14 15:36:52;;;;;;;1.35;1.05;;;25.20;89.20;;;23.57;60.49;99112.78;10280621;28;96702;-91
2022/09/14 15:41:56;;;;;;;1.77;1.20;;;25.30;89.00;;;23.52;59.91;99093.84;10273083;28;96705;-90
2022/09/14 15:47:00;;;;;;;1.35;1.10;;;25.30;88.60;;;23.48;60.01;99088.16;10306147;28;98103;-89
2022/09/14 15:52:03;;;;;;;2.00;1.20;;;25.20;88.60;;;23.48;61.31;99080.03;10280111;28;98076;-89
2022/09/14 15:57:10;;;;;;;1.63;1.02;;;25.20;89.00;;;23.40;61.68;99075.19;10268315;28;96574;-90
2022/09/14 16:02:13;;;;;;;3.13;1.23;;;25.10;89.70;;;23.32;62.29;99094.72;10286595;28;98354;-86
2022/09/14 16:07:16;;;;;;;1.98;1.10;;;25.00;90.10;;;23.23;62.00;99102.66;10272964;28;96806;-86
2022/09/14 16:12:19;;;;;;;3.55;1.50;;;24.80;90.10;;;23.07;62.37;99115.44;10279341;28;97469;-86
2022/09/14 16:17:21;;;;;;;1.55;1.08;;;24.60;90.40;;;22.87;62.96;99112.78;10276222;28;98228;-87
2022/09/14 16:22:24;;;;;;;2.20;1.67;;;24.30;90.70;;;22.73;63.56;99114.41;10308820;28;98095;-87
2022/09/14 16:27:27;;;;;;;3.70;1.60;;;24.20;90.90;;;22.53;64.02;99126.06;10256655;28;98421;-86
2022/09/14 16:32:30;;;;;;;2.97;1.50;;;24.00;91.20;;;22.32;64.75;99114.47;10269587;28;98809;-87
2022/09/14 16:37:33;;;;;;;2.78;1.70;;;23.80;91.50;;;22.20;65.19;99117.44;10296773;28;97962;-87
2022/09/14 16:42:36;;;;;;;4.90;2.35;;;23.60;91.70;;;22.00;66.10;99111.97;10278752;28;98213;-86
2022/09/14 16:47:39;;;;;;;8.32;3.20;;;23.50;92.00;;;21.78;66.86;99107.63;10289056;28;98504;-87
2022/09/14 16:52:42;;;;;;;8.07;3.53;;;23.20;92.20;;;21.54;67.97;99112.69;10260987;28;97364;-87
2022/09/14 16:57:45;;;;;;;4.85;2.67;;;23.00;92.70;;;21.32;68.55;99107.47;10274275;28;97823;-87
2022/09/14 17:02:51;;;;;;;6.20;3.22;;;22.80;93.00;;;21.09;69.21;99099.78;10278153;28;97503;-87
2022/09/14 17:07:54;;;;;;;5.03;2.55;;;22.60;93.40;;;20.91;69.78;99089.44;10282078;28;96582;-86
2022/09/14 17:12:57;;;;;;;5.97;3.50;;;22.40;93.70;;;20.73;70.12;99075.28;10295916;28;96587;-86
2022/09/14 17:18:00;;;;;;;4.82;2.90;;;22.20;93.90;;;20.50;70.94;99068.41;10276929;28;96896;-86
2022/09/14 17:23:03;;;;;;;10.05;5.25;;;22.00;94.10;;;20.38;71.43;99075.03;10297059;28;96808;-87
2022/09/14 17:28:06;;;;;;;3.25;2.22;;;21.80;94.40;;;20.19;71.87;99083.53;10279694;28;97929;-87
2022/09/14 17:33:09;;;;;;;3.70;2.15;;;21.60;94.80;;;19.99;72.55;99078.78;10265564;28;96683;-87
2022/09/14 17:38:12;;;;;;;5.15;2.72;;;21.50;95.10;;;19.90;72.92;99080.31;10288548;28;96640;-88
2022/09/14 17:43:17;;;;;;;5.13;3.10;;;21.40;95.30;;;19.73;73.42;99053.50;10320319;28;96641;-95
2022/09/14 17:48:22;;;;;;;4.78;3.05;;;21.20;95.60;;;19.68;73.97;99044.53;10286923;28;97152;-91
2022/09/14 17:53:24;;;;;;;2.13;1.70;;;21.10;95.90;;;19.55;74.67;99034.13;10288297;28;96586;-93
2022/09/14 17:58:27;;;;;;;2.33;1.85;;;21.00;96.10;;;19.42;75.17;99038.84;10284450;28;96710;-85
2022/09/14 18:03:30;;;;;;;3.50;2.90;;;20.90;96.60;;;19.31;75.90;99050.59;10293733;28;96740;-86
2022/09/14 18:08:33;;;;;;;4.53;2.30;;;20.80;97.10;;;19.27;76.38;99056.75;10291254;28;98584;-87
2022/09/14 18:13:45;;;;;;;3.03;2.05;;;20.70;97.10;;;19.20;76.41;99055.06;10298900;28;97396;-86
2022/09/14 18:18:48;;;;;;;2.42;1.60;;;20.60;97.30;;;19.17;76.66;99046.66;10274813;28;96728;-86
2022/09/14 18:23:53;;;;;;;3.30;1.92;;;20.60;97.30;;;19.13;77.01;99054.44;10300790;28;97142;-86
2022/09/14 18:28:57;;;;;;;2.75;1.98;;;20.60;97.40;;;19.03;77.07;99058.88;10287730;28;96937;-86
2022/09/14 18:34:01;;;;;;;5.18;3.28;;;20.60;97.60;;;18.94;77.28;99066.56;10295672;28;96613;-87
2022/09/14 18:39:04;;;;;;;3.35;2.17;;;20.40;98.00;;;18.85;78.10;99046.53;10292892;28;96594;-87
2022/09/14 18:44:07;;;;;;;13.75;10.35;;;20.30;98.10;;;18.78;78.37;99044.03;10276428;28;96795;-87
2022/09/14 18:49:10;;;;;;;3.83;3.00;;;20.30;98.40;;;18.74;78.54;99040.22;10259302;28;96746;-86
2022/09/14 18:54:12;;;;;;;2.13;1.67;;;20.20;98.60;;;18.69;78.79;99026.69;10282002;28;97985;-85
2022/09/14 18:59:15;;;;;;;2.30;1.48;;;20.20;98.80;;;18.67;79.02;99034.19;10277631;28;98714;-85
2022/09/14 19:04:18;;;;;;;2.72;2.13;;;20.20;99.00;;;18.65;79.51;99045.19;10292654;28;96636;-85
2022/09/14 19:09:21;;;;;;;2.55;1.70;;;20.10;99.30;;;18.62;79.70;99053.75;10284393;28;97284;-86
2022/09/14 19:14:27;;;;;;;3.53;1.75;;;20.10;99.70;;;18.61;80.10;99054.81;10288806;28;96617;-86
2022/09/14 19:19:29;;;;;;;2.50;1.80;;;20.00;99.90;;;18.60;80.14;99044.31;10279340;28;96711;-85
2022/09/14 19:24:32;;;;;;;3.28;1.75;;;20.00;99.90;;;18.60;79.98;99028.16;10278629;28;97154;-86
2022/09/14 19:29:35;;;;;;;1.73;1.50;;;20.10;99.90;;;18.60;80.30;99023.59;10302058;28;97231;-85
2022/09/14 19:34:38;;;;;;;2.30;1.38;;;20.10;99.90;;;18.61;80.39;99027.09;10287743;28;96705;-85
2022/09/14 19:39:41;;;;;;;2.50;1.80;;;20.10;99.90;;;18.58;80.86;99019.50;10305716;28;96671;-88
2022/09/14 19:44:43;;;;;;;2.83;1.70;;;20.00;99.90;;;18.56;80.98;99011.69;10294580;28;96730;-87
2022/09/14 19:49:48;;;;;;;3.17;2.00;;;20.00;99.90;;;18.58;81.24;99011.44;10284706;28;97559;-86
2022/09/14 19:54:51;;;;;;;3.38;2.35;;;20.10;99.90;;;18.58;81.34;99006.06;10285683;28;98270;-87
2022/09/14 19:59:54;;;;;;;2.80;1.90;;;20.10;99.90;;;18.58;81.11;99009.56;10279451;28;96695;-87
2022/09/14 20:04:57;;;;;;;2.80;1.73;;;20.10;99.90;;;18.56;81.36;99008.19;10299093;28;96619;-87
2022/09/14 20:10:00;;;;;;;3.28;1.50;;;20.10;99.90;;;18.55;81.75;99007.38;10305582;28;98126;-85
2022/09/14 20:15:03;;;;;;;2.13;1.40;;;20.10;99.90;;;18.51;81.77;98987.41;10280693;28;96505;-86
2022/09/14 20:20:06;;;;;;;2.53;1.63;;;20.00;99.90;;;18.49;81.70;98991.41;10324103;28;96572;-85
2022/09/14 20:25:09;;;;;;;3.47;1.85;;;20.00;99.90;;;18.45;81.87;98991.09;10303330;28;96658;-85
2022/09/14 20:30:12;;;;;;;2.28;1.70;;;20.00;99.90;;;18.41;81.90;98992.63;10297469;28;97454;-85
2022/09/14 20:35:15;;;;;;;2.80;2.10;;;19.90;99.90;;;18.37;82.18;98986.16;10279746;28;97235;-85
2022/09/14 20:40:18;;;;;;;2.55;1.70;;;19.90;99.90;;;18.33;82.36;98975.06;10279121;28;97598;-85
2022/09/14 20:45:21;;;;;;;2.17;1.88;;;19.80;99.90;;;18.31;82.78;98987.94;10294967;28;96678;-86
2022/09/14 20:50:24;;;;;;;2.35;1.65;;;19.80;99.90;;;18.30;82.79;98991.69;10286282;28;96846;-86
2022/09/14 20:55:26;;;;;;;2.83;2.00;;;19.80;99.90;;;18.27;83.21;98981.44;10282416;28;98092;-86
2022/09/14 21:00:29;;;;;;;2.53;1.90;;;19.80;99.90;;;18.24;82.93;98981.94;10307635;28;98236;-86
2022/09/14 21:05:32;;;;;;;2.28;1.63;;;19.80;99.90;;;18.26;83.27;98997.81;10292657;28;96755;-87
2022/09/14 21:10:37;;;;;;;2.92;1.90;;;19.80;99.90;;;18.24;83.11;98992.69;10276790;28;98494;-86
2022/09/14 21:15:40;;;;;;;1.92;1.40;;;19.80;99.90;;;18.18;83.26;98989.13;10301980;28;96632;-86
2022/09/14 21:20:43;;;;;;;2.67;1.85;;;19.70;99.90;;;18.22;83.47;98994.78;10263263;28;97353;-86